createdAt,value
2023-04-10T00:02:27.653Z,100.00
2023-04-10T00:04:56.394Z,100.00
2023-04-10T00:07:26.665Z,100.00
2023-04-10T00:09:55.160Z,100.00
2023-04-10T00:12:23.620Z,100.00
2023-04-10T00:14:52.196Z,100.00
2023-04-10T00:17:20.670Z,100.00
2023-04-10T00:19:49.289Z,100.00
2023-04-10T00:22:17.729Z,100.00
2023-04-10T00:24:47.582Z,100.00
2023-04-10T00:27:16.221Z,100.00
2023-04-10T00:29:44.665Z,100.00
2023-04-10T00:32:13.256Z,100.00
2023-04-10T00:34:41.956Z,100.00
2023-04-10T00:37:15.584Z,100.00
2023-04-10T00:39:44.513Z,100.00
2023-04-10T00:42:14.753Z,100.00
2023-04-10T00:44:43.346Z,100.00
2023-04-10T00:47:11.919Z,100.00
2023-04-10T00:49:40.523Z,100.00
2023-04-10T00:52:09.370Z,100.00
2023-04-10T00:54:38.161Z,100.00
2023-04-10T00:57:06.712Z,100.00
2023-04-10T00:59:36.732Z,100.00
2023-04-10T01:02:06.250Z,100.00
2023-04-10T01:04:35.627Z,100.00
2023-04-10T01:07:11.626Z,100.00
2023-04-10T01:09:46.704Z,100.00
2023-04-10T01:12:30.724Z,100.00
2023-04-10T01:15:10.883Z,100.00
2023-04-10T01:17:47.609Z,100.00
2023-04-10T01:20:21.808Z,100.00
2023-04-10T01:23:14.204Z,100.00
2023-04-10T01:25:47.678Z,100.00
2023-04-10T01:28:46.463Z,100.00
2023-04-10T01:31:21.774Z,100.00
2023-04-10T01:33:54.367Z,100.00
2023-04-10T01:36:28.204Z,100.00
2023-04-10T01:38:59.227Z,100.00
2023-04-10T01:41:28.275Z,100.00
2023-04-10T01:44:00.469Z,100.00
2023-04-10T01:46:31.764Z,100.00
2023-04-10T01:49:02.111Z,100.00
2023-04-10T01:51:32.771Z,100.00
2023-04-10T01:54:07.014Z,100.00
2023-04-10T01:56:37.074Z,100.00
2023-04-10T01:59:06.775Z,100.00
2023-04-10T02:01:36.841Z,100.00
2023-04-10T02:04:05.549Z,100.00
2023-04-10T02:06:43.018Z,100.00
2023-04-10T02:09:19.355Z,100.00
2023-04-10T02:11:53.300Z,100.00
2023-04-10T02:14:23.335Z,100.00
2023-04-10T02:16:56.464Z,100.00
2023-04-10T02:19:28.725Z,100.00
2023-04-10T02:21:58.297Z,100.00
2023-04-10T02:24:28.384Z,100.00
2023-04-10T02:26:58.013Z,100.00
2023-04-10T02:29:26.890Z,100.00
2023-04-10T02:31:57.646Z,100.00
2023-04-10T02:34:26.210Z,100.00
2023-04-10T02:36:55.046Z,100.00
2023-04-10T02:39:23.770Z,100.00
2023-04-10T02:41:53.713Z,100.00
2023-04-10T02:44:22.323Z,100.00
2023-04-10T02:46:50.924Z,100.00
2023-04-10T02:49:21.359Z,100.00
2023-04-10T02:51:49.845Z,100.00
2023-04-10T02:54:18.312Z,100.00
2023-04-10T02:56:47.453Z,100.00
2023-04-10T02:59:16.125Z,100.00
2023-04-10T03:01:44.929Z,100.00
2023-04-10T03:04:13.909Z,100.00
2023-04-10T03:06:46.463Z,100.00
2023-04-10T03:09:15.286Z,100.00
2023-04-10T03:11:43.862Z,100.00
2023-04-10T03:14:12.449Z,100.00
2023-04-10T03:16:41.182Z,100.00
2023-04-10T03:19:09.838Z,100.00
2023-04-10T03:21:38.675Z,100.00
2023-04-10T03:24:08.948Z,100.00
2023-04-10T03:26:37.641Z,100.00
2023-04-10T03:29:06.482Z,100.00
2023-04-10T03:31:36.279Z,100.00
2023-04-10T03:34:05.198Z,100.00
2023-04-10T03:36:33.831Z,100.00
2023-04-10T03:39:02.504Z,100.00
2023-04-10T03:41:33.669Z,100.00
2023-04-10T03:44:04.067Z,100.00
2023-04-10T03:46:32.760Z,100.00
2023-04-10T03:49:03.514Z,100.00
2023-04-10T03:51:34.068Z,100.00
2023-04-10T03:54:03.385Z,100.00
2023-04-10T03:56:33.434Z,100.00
2023-04-10T03:59:03.060Z,100.00
2023-04-10T04:01:34.474Z,100.00
2023-04-10T04:04:10.902Z,100.00
2023-04-10T04:07:05.890Z,100.00
2023-04-10T04:09:54.794Z,100.00
2023-04-10T04:12:44.913Z,100.00
2023-04-10T04:15:36.132Z,100.00
2023-04-10T04:18:18.912Z,100.00
2023-04-10T04:20:51.642Z,100.00
2023-04-10T04:23:45.074Z,100.00
2023-04-10T04:26:27.420Z,100.00
2023-04-10T04:29:13.415Z,100.00
2023-04-10T04:32:12.053Z,100.00
2023-04-10T04:34:56.518Z,100.00
2023-04-10T04:37:45.374Z,100.00
2023-04-10T04:40:40.396Z,100.00
2023-04-10T04:43:21.747Z,100.00
2023-04-10T04:46:30.159Z,100.00
2023-04-10T04:49:21.867Z,100.00
2023-04-10T04:52:11.178Z,100.00
2023-04-10T04:55:03.862Z,100.00
2023-04-10T04:57:52.804Z,100.00
2023-04-10T05:00:29.858Z,100.00
2023-04-10T05:03:07.818Z,100.00
2023-04-10T05:05:55.023Z,100.00
2023-04-10T05:08:47.435Z,100.00
2023-04-10T05:11:34.686Z,100.00
2023-04-10T05:14:35.731Z,100.00
2023-04-10T05:17:23.740Z,100.00
2023-04-10T05:20:14.292Z,100.00
2023-04-10T05:22:58.457Z,100.00
2023-04-10T05:25:45.626Z,100.00
2023-04-10T05:28:33.033Z,100.00
2023-04-10T05:31:17.283Z,100.00
2023-04-10T05:33:57.452Z,100.00
2023-04-10T05:36:50.286Z,100.00
2023-04-10T05:39:23.458Z,100.00
2023-04-10T05:42:10.716Z,100.00
2023-04-10T05:44:49.348Z,100.00
2023-04-10T05:47:38.170Z,100.00
2023-04-10T05:50:30.482Z,100.00
2023-04-10T05:53:16.313Z,100.00
2023-04-10T05:56:11.012Z,100.00
2023-04-10T05:58:45.429Z,100.00
2023-04-10T06:01:17.255Z,100.00
2023-04-10T06:03:51.657Z,100.00
2023-04-10T06:06:22.691Z,100.00
2023-04-10T06:08:53.042Z,100.00
2023-04-10T06:11:22.015Z,100.00
2023-04-10T06:13:54.496Z,100.00
2023-04-10T06:16:28.823Z,100.00
2023-04-10T06:18:57.470Z,100.00
2023-04-10T06:21:26.281Z,100.00
2023-04-10T06:23:56.491Z,100.00
2023-04-10T06:26:26.262Z,100.00
2023-04-10T06:28:55.028Z,100.00
2023-04-10T06:31:24.217Z,100.00
2023-04-10T06:33:52.897Z,100.00
2023-04-10T06:36:22.245Z,100.00
2023-04-10T06:39:00.128Z,100.00
2023-04-10T06:41:28.730Z,100.00
2023-04-10T06:44:06.572Z,100.00
2023-04-10T06:46:35.239Z,100.00
2023-04-10T06:49:04.405Z,100.00
2023-04-10T06:51:33.100Z,100.00
2023-04-10T06:54:03.021Z,100.00
2023-04-10T06:56:31.588Z,100.00
2023-04-10T06:59:00.060Z,100.00
2023-04-10T07:01:28.616Z,100.00
2023-04-10T07:03:57.156Z,100.00
2023-04-10T07:06:26.552Z,100.00
2023-04-10T07:08:55.233Z,100.00
2023-04-10T07:11:25.677Z,100.00
2023-04-10T07:13:58.672Z,100.00
2023-04-10T07:16:27.719Z,100.00
2023-04-10T07:18:56.919Z,100.00
2023-04-10T07:21:27.343Z,100.00
2023-04-10T07:23:55.920Z,100.00
2023-04-10T07:26:26.091Z,100.00
2023-04-10T07:28:55.030Z,100.00
2023-04-10T07:31:24.142Z,100.00
2023-04-10T07:33:52.711Z,100.00
2023-04-10T07:36:21.239Z,100.00
2023-04-10T07:38:49.882Z,100.00
2023-04-10T07:41:18.398Z,100.00
2023-04-10T07:43:48.506Z,100.00
2023-04-10T07:46:17.592Z,100.00
2023-04-10T07:48:47.326Z,100.00
2023-04-10T07:51:15.853Z,100.00
2023-04-10T07:53:44.457Z,100.00
2023-04-10T07:56:18.448Z,100.00
2023-04-10T07:58:49.649Z,100.00
2023-04-10T08:01:18.232Z,100.00
2023-04-10T08:03:47.985Z,100.00
2023-04-10T08:06:16.787Z,100.00
2023-04-10T08:08:45.227Z,100.00
2023-04-10T08:11:26.349Z,100.00
2023-04-10T08:13:56.830Z,100.00
2023-04-10T08:16:26.521Z,100.00
2023-04-10T08:18:56.836Z,100.00
2023-04-10T08:21:27.042Z,100.00
2023-04-10T08:23:56.810Z,100.00
2023-04-10T08:26:26.933Z,100.00
2023-04-10T08:28:58.646Z,100.00
2023-04-10T08:31:28.671Z,100.00
2023-04-10T08:33:58.722Z,100.00
2023-04-10T08:36:28.432Z,100.00
2023-04-10T08:38:56.994Z,100.00
2023-04-10T08:41:25.715Z,100.00
2023-04-10T08:43:54.385Z,100.00
2023-04-10T08:46:26.508Z,100.00
2023-04-10T08:49:00.196Z,100.00
2023-04-10T08:51:34.227Z,100.00
2023-04-10T08:54:08.307Z,100.00
2023-04-10T08:56:39.188Z,100.00
2023-04-10T08:59:09.357Z,100.00
2023-04-10T09:01:41.759Z,100.00
2023-04-10T09:04:13.449Z,100.00
2023-04-10T09:06:42.431Z,95.95
2023-04-10T09:09:11.128Z,100.00
2023-04-10T09:12:01.161Z,100.00
2023-04-10T09:14:32.006Z,100.00
2023-04-10T09:17:17.743Z,100.00
2023-04-10T09:19:47.931Z,92.71
2023-04-10T09:22:16.756Z,96.19
2023-04-10T09:24:46.840Z,83.37
2023-04-10T09:27:31.526Z,100.00
2023-04-10T09:30:00.924Z,100.00
2023-04-10T09:32:44.960Z,72.54
2023-04-10T09:35:15.265Z,100.00
2023-04-10T09:37:47.061Z,100.00
2023-04-10T09:40:23.189Z,95.21
2023-04-10T09:42:52.235Z,85.39
2023-04-10T09:45:22.743Z,100.00
2023-04-10T09:48:06.258Z,73.47
2023-04-10T09:50:40.235Z,86.68
2023-04-10T09:53:09.788Z,90.21
2023-04-10T09:55:38.975Z,74.20
2023-04-10T09:58:08.386Z,68.62
2023-04-10T10:00:42.323Z,96.56
2023-04-10T10:03:14.294Z,100.00
2023-04-10T10:05:44.870Z,94.31
2023-04-10T10:08:14.333Z,77.43
2023-04-10T10:10:47.612Z,100.00
2023-04-10T10:13:21.470Z,87.95
2023-04-10T10:15:58.505Z,84.19
2023-04-10T10:18:37.111Z,70.43
2023-04-10T10:21:07.260Z,84.21
2023-04-10T10:23:36.785Z,65.20
2023-04-10T10:26:07.261Z,63.61
2023-04-10T10:28:37.417Z,81.46
2023-04-10T10:31:07.094Z,80.06
2023-04-10T10:33:39.859Z,74.16
2023-04-10T10:36:11.028Z,70.16
2023-04-10T10:38:43.358Z,74.30
2023-04-10T10:41:17.852Z,86.99
2023-04-10T10:43:56.319Z,92.55
2023-04-10T10:46:35.056Z,82.65
2023-04-10T10:49:05.275Z,81.94
2023-04-10T10:51:48.103Z,74.92
2023-04-10T10:54:30.188Z,76.99
2023-04-10T10:56:58.867Z,94.30
2023-04-10T10:59:58.754Z,96.79
2023-04-10T11:02:27.580Z,94.74
2023-04-10T11:04:57.616Z,66.42
2023-04-10T11:08:04.470Z,75.70
2023-04-10T11:11:03.815Z,88.44
2023-04-10T11:13:32.726Z,81.26
2023-04-10T11:16:03.136Z,71.12
2023-04-10T11:19:14.366Z,82.05
2023-04-10T11:22:05.968Z,81.22
2023-04-10T11:24:57.748Z,79.95
2023-04-10T11:27:48.711Z,94.53
2023-04-10T11:30:34.905Z,95.56
2023-04-10T11:33:05.092Z,80.20
2023-04-10T11:35:34.346Z,67.70
2023-04-10T11:38:18.694Z,96.22
2023-04-10T11:41:01.926Z,100.00
2023-04-10T11:43:30.503Z,73.12
2023-04-10T11:46:03.412Z,76.93
2023-04-10T11:48:32.339Z,86.93
2023-04-10T11:51:02.307Z,97.52
2023-04-10T11:53:32.395Z,83.15
2023-04-10T11:56:01.025Z,76.84
2023-04-10T11:58:32.268Z,95.12
2023-04-10T12:01:02.319Z,73.21
2023-04-10T12:03:38.866Z,80.00
2023-04-10T12:06:10.792Z,81.99
2023-04-10T12:08:42.434Z,77.96
2023-04-10T12:11:14.726Z,76.72
2023-04-10T12:13:43.286Z,92.61
2023-04-10T12:16:12.542Z,99.53
2023-04-10T12:18:42.005Z,100.00
2023-04-10T12:21:10.798Z,79.76
2023-04-10T12:23:41.070Z,91.90
2023-04-10T12:26:12.760Z,87.96
2023-04-10T12:28:43.431Z,100.00
2023-04-10T12:31:12.234Z,85.46
2023-04-10T12:33:41.022Z,93.45
2023-04-10T12:36:23.221Z,92.88
2023-04-10T12:38:53.563Z,92.51
2023-04-10T12:41:27.046Z,89.31
2023-04-10T12:44:07.839Z,81.86
2023-04-10T12:46:36.942Z,91.94
2023-04-10T12:49:13.077Z,77.56
2023-04-10T12:51:48.986Z,90.91
2023-04-10T12:54:37.555Z,79.09
2023-04-10T12:57:07.769Z,84.67
2023-04-10T12:59:36.235Z,96.40
2023-04-10T13:02:04.970Z,90.70
2023-04-10T13:04:33.716Z,86.13
2023-04-10T13:07:02.433Z,83.32
2023-04-10T13:09:31.200Z,79.04
2023-04-10T13:12:01.897Z,81.90
2023-04-10T13:14:30.740Z,85.39
2023-04-10T13:16:59.243Z,68.09
2023-04-10T13:19:27.894Z,91.17
2023-04-10T13:21:56.529Z,77.94
2023-04-10T13:24:25.068Z,75.33
2023-04-10T13:26:53.843Z,88.46
2023-04-10T13:29:23.978Z,73.00
2023-04-10T13:31:52.726Z,81.00
2023-04-10T13:34:21.444Z,76.75
2023-04-10T13:36:50.406Z,88.87
2023-04-10T13:39:19.329Z,78.50
2023-04-10T13:41:47.872Z,90.40
2023-04-10T13:44:16.406Z,87.35
2023-04-10T13:46:46.408Z,88.47
2023-04-10T13:49:17.638Z,91.79
2023-04-10T13:51:47.118Z,90.08
2023-04-10T13:54:17.150Z,85.63
2023-04-10T13:56:46.706Z,95.50
2023-04-10T13:59:15.607Z,93.87
2023-04-10T14:01:45.679Z,93.73
2023-04-10T14:04:14.259Z,91.67
2023-04-10T14:06:42.816Z,96.11
2023-04-10T14:09:11.340Z,99.09
2023-04-10T14:11:39.952Z,88.65
2023-04-10T14:14:08.667Z,86.58
2023-04-10T14:16:37.236Z,82.18
2023-04-10T14:19:07.288Z,86.94
2023-04-10T14:21:36.408Z,95.69
2023-04-10T14:24:05.174Z,95.92
2023-04-10T14:26:33.686Z,100.00
2023-04-10T14:29:02.289Z,91.07
2023-04-10T14:31:31.110Z,100.00
2023-04-10T14:33:59.653Z,91.74
2023-04-10T14:36:29.602Z,79.00
2023-04-10T14:38:58.262Z,86.25
2023-04-10T14:41:26.974Z,82.11
2023-04-10T14:43:55.594Z,91.31
2023-04-10T14:46:25.670Z,100.00
2023-04-10T14:48:54.377Z,100.00
2023-04-10T14:51:22.901Z,98.36
2023-04-10T14:53:53.394Z,100.00
2023-04-10T14:56:22.039Z,100.00
2023-04-10T14:58:50.636Z,100.00
2023-04-10T15:01:19.301Z,100.00
2023-04-10T15:03:49.284Z,87.29
2023-04-10T15:06:18.093Z,94.52
2023-04-10T15:08:46.742Z,80.51
2023-04-10T15:11:16.677Z,80.78
2023-04-10T15:13:45.206Z,81.81
2023-04-10T15:16:13.877Z,93.44
2023-04-10T15:18:42.522Z,83.15
2023-04-10T15:21:11.105Z,100.00
2023-04-10T15:23:39.685Z,94.04
2023-04-10T15:26:12.633Z,97.02
2023-04-10T15:28:43.278Z,100.00
2023-04-10T15:31:12.946Z,100.00
2023-04-10T15:33:41.505Z,99.98
2023-04-10T15:36:11.079Z,100.00
2023-04-10T15:38:39.663Z,100.00
2023-04-10T15:41:12.002Z,100.00
2023-04-10T15:43:42.641Z,100.00
2023-04-10T15:46:12.687Z,100.00
2023-04-10T15:48:41.385Z,100.00
2023-04-10T15:51:10.067Z,100.00
2023-04-10T15:53:38.641Z,93.36
2023-04-10T15:56:08.186Z,100.00
2023-04-10T15:58:36.706Z,100.00
2023-04-10T16:01:06.462Z,100.00
2023-04-10T16:03:36.822Z,100.00
2023-04-10T16:06:05.997Z,100.00
2023-04-10T16:08:34.673Z,100.00
2023-04-10T16:11:03.678Z,100.00
2023-04-10T16:13:32.115Z,100.00
2023-04-10T16:16:01.500Z,100.00
2023-04-10T16:18:30.004Z,100.00
2023-04-10T16:21:00.063Z,100.00
2023-04-10T16:23:28.511Z,100.00
2023-04-10T16:25:57.038Z,100.00
2023-04-10T16:28:26.268Z,100.00
2023-04-10T16:30:54.877Z,100.00
2023-04-10T16:33:23.505Z,100.00
2023-04-10T16:35:52.113Z,100.00
2023-04-10T16:38:22.091Z,100.00
2023-04-10T16:40:50.808Z,100.00
2023-04-10T16:43:19.325Z,100.00
2023-04-10T16:45:55.930Z,100.00
2023-04-10T16:48:24.592Z,100.00
2023-04-10T16:50:53.172Z,100.00
2023-04-10T16:53:23.552Z,100.00
2023-04-10T16:55:59.296Z,100.00
2023-04-10T16:58:29.437Z,100.00
2023-04-10T17:00:57.986Z,100.00
2023-04-10T17:03:26.600Z,100.00
2023-04-10T17:05:55.379Z,100.00
2023-04-10T17:08:25.506Z,100.00
2023-04-10T17:10:54.070Z,100.00
2023-04-10T17:13:22.574Z,100.00
2023-04-10T17:15:51.072Z,100.00
2023-04-10T17:18:21.819Z,100.00
2023-04-10T17:20:50.561Z,100.00
2023-04-10T17:23:19.043Z,100.00
2023-04-10T17:25:49.209Z,100.00
2023-04-10T17:28:18.023Z,100.00
2023-04-10T17:30:46.563Z,100.00
2023-04-10T17:33:15.038Z,100.00
2023-04-10T17:35:43.857Z,100.00
2023-04-10T17:38:12.550Z,100.00
2023-04-10T17:40:42.252Z,100.00
2023-04-10T17:43:12.407Z,100.00
2023-04-10T17:45:41.387Z,100.00
2023-04-10T17:48:10.430Z,100.00
2023-04-10T17:50:38.918Z,100.00
2023-04-10T17:53:07.641Z,100.00
2023-04-10T17:55:40.087Z,100.00
2023-04-10T17:58:08.624Z,100.00
2023-04-10T18:00:38.870Z,100.00
2023-04-10T18:03:07.589Z,100.00
2023-04-10T18:05:38.334Z,100.00
2023-04-10T18:08:08.073Z,100.00
2023-04-10T18:10:36.701Z,100.00
2023-04-10T18:13:06.176Z,100.00
2023-04-10T18:15:34.652Z,100.00
2023-04-10T18:18:04.920Z,100.00
2023-04-10T18:20:33.507Z,100.00
2023-04-10T18:23:04.021Z,100.00
2023-04-10T18:25:33.195Z,100.00
2023-04-10T18:28:13.152Z,100.00
2023-04-10T18:30:43.467Z,100.00
2023-04-10T18:33:14.282Z,100.00
2023-04-10T18:35:42.882Z,100.00
2023-04-10T18:38:11.390Z,100.00
2023-04-10T18:40:39.987Z,100.00
2023-04-10T18:43:08.694Z,100.00
2023-04-10T18:45:37.175Z,100.00
2023-04-10T18:48:05.867Z,100.00
2023-04-10T18:50:38.436Z,100.00
2023-04-10T18:53:07.349Z,100.00
2023-04-10T18:55:36.047Z,100.00
2023-04-10T18:58:04.571Z,100.00
2023-04-10T19:00:34.355Z,100.00
2023-04-10T19:03:03.050Z,100.00
2023-04-10T19:05:33.751Z,100.00
2023-04-10T19:08:04.956Z,100.00
2023-04-10T19:10:34.560Z,100.00
2023-04-10T19:13:03.368Z,100.00
2023-04-10T19:15:32.010Z,100.00
2023-04-10T19:18:00.603Z,100.00
2023-04-10T19:20:50.840Z,100.00
2023-04-10T19:23:19.289Z,100.00
2023-04-10T19:25:48.052Z,100.00
2023-04-10T19:28:16.869Z,100.00
2023-04-10T19:30:45.528Z,100.00
2023-04-10T19:33:28.912Z,100.00
2023-04-10T19:35:58.337Z,100.00
2023-04-10T19:38:29.521Z,100.00
2023-04-10T19:40:58.020Z,100.00
2023-04-10T19:43:26.930Z,100.00
2023-04-10T19:45:56.447Z,100.00
2023-04-10T19:48:24.952Z,100.00
2023-04-10T19:50:53.610Z,100.00
2023-04-10T19:53:22.197Z,100.00
2023-04-10T19:55:52.241Z,100.00
2023-04-10T19:58:38.885Z,100.00
2023-04-10T20:01:08.986Z,100.00
2023-04-10T20:03:38.760Z,100.00
2023-04-10T20:06:08.705Z,100.00
2023-04-10T20:08:37.605Z,100.00
2023-04-10T20:11:07.980Z,100.00
2023-04-10T20:13:36.905Z,100.00
2023-04-10T20:16:05.825Z,100.00
2023-04-10T20:18:34.356Z,100.00
2023-04-10T20:21:02.898Z,100.00
2023-04-10T20:23:31.707Z,100.00
2023-04-10T20:26:00.236Z,100.00
2023-04-10T20:28:30.381Z,100.00
2023-04-10T20:30:59.024Z,100.00
2023-04-10T20:33:27.703Z,100.00
2023-04-10T20:35:56.243Z,100.00
2023-04-10T20:38:24.882Z,100.00
2023-04-10T20:40:53.503Z,100.00
2023-04-10T20:43:22.021Z,100.00
2023-04-10T20:45:52.301Z,100.00
2023-04-10T20:48:20.817Z,100.00
2023-04-10T20:50:49.914Z,100.00
2023-04-10T20:53:18.470Z,100.00
2023-04-10T20:55:47.126Z,100.00
2023-04-10T20:58:15.550Z,100.00
2023-04-10T21:00:44.125Z,100.00
2023-04-10T21:03:14.389Z,100.00
2023-04-10T21:05:43.428Z,100.00
2023-04-10T21:08:13.902Z,100.00
2023-04-10T21:10:45.206Z,100.00
2023-04-10T21:13:14.867Z,100.00
2023-04-10T21:15:43.904Z,100.00
2023-04-10T21:18:13.999Z,100.00
2023-04-10T21:20:43.559Z,100.00
2023-04-10T21:23:12.162Z,100.00
2023-04-10T21:25:40.967Z,100.00
2023-04-10T21:28:09.504Z,100.00
2023-04-10T21:30:38.063Z,100.00
2023-04-10T21:33:06.712Z,100.00
2023-04-10T21:35:37.013Z,100.00
2023-04-10T21:38:05.538Z,100.00
2023-04-10T21:40:34.639Z,100.00
2023-04-10T21:43:03.542Z,100.00
2023-04-10T21:45:34.813Z,100.00
2023-04-10T21:48:03.558Z,100.00
2023-04-10T21:50:32.170Z,100.00
2023-04-10T21:53:02.142Z,100.00
2023-04-10T21:55:30.837Z,100.00
2023-04-10T21:57:59.446Z,100.00
2023-04-10T22:00:29.037Z,100.00
2023-04-10T22:02:57.878Z,100.00
2023-04-10T22:05:26.548Z,100.00
2023-04-10T22:07:55.300Z,100.00
2023-04-10T22:10:25.289Z,100.00
2023-04-10T22:12:53.925Z,100.00
2023-04-10T22:15:22.696Z,100.00
2023-04-10T22:17:52.736Z,100.00
2023-04-10T22:20:21.379Z,100.00
2023-04-10T22:22:49.885Z,100.00
2023-04-10T22:25:18.836Z,100.00
2023-04-10T22:27:49.245Z,100.00
2023-04-10T22:30:18.061Z,100.00
2023-04-10T22:32:46.644Z,100.00
2023-04-10T22:35:15.229Z,100.00
2023-04-10T22:37:44.517Z,100.00
2023-04-10T22:40:13.172Z,100.00
2023-04-10T22:42:42.855Z,100.00
2023-04-10T22:45:14.408Z,100.00
2023-04-10T22:47:43.035Z,100.00
2023-04-10T22:50:12.191Z,100.00
2023-04-10T22:52:40.752Z,100.00
2023-04-10T22:55:10.065Z,100.00
2023-04-10T22:57:38.573Z,100.00
2023-04-10T23:00:08.186Z,100.00
2023-04-10T23:02:38.308Z,100.00
2023-04-10T23:05:08.451Z,100.00
2023-04-10T23:07:36.964Z,100.00
2023-04-10T23:10:06.204Z,100.00
2023-04-10T23:12:34.644Z,100.00
2023-04-10T23:15:03.258Z,100.00
2023-04-10T23:17:31.997Z,100.00
2023-04-10T23:20:01.848Z,100.00
2023-04-10T23:22:30.453Z,100.00
2023-04-10T23:24:59.349Z,100.00
2023-04-10T23:27:28.062Z,100.00
2023-04-10T23:29:56.589Z,100.00
2023-04-10T23:32:25.235Z,100.00
2023-04-10T23:34:53.758Z,100.00
2023-04-10T23:37:23.775Z,100.00
2023-04-10T23:39:52.380Z,100.00
2023-04-10T23:42:20.877Z,100.00
2023-04-10T23:44:49.476Z,100.00
2023-04-10T23:47:18.038Z,100.00
2023-04-10T23:49:46.536Z,100.00
2023-04-10T23:52:15.323Z,100.00
2023-04-10T23:54:45.393Z,100.00
2023-04-10T23:57:14.008Z,100.00
2023-04-10T23:59:42.514Z,100.00
